sensor_id;sensor_type;location;lat;lon;timestamp;temperature;humidity
7684;DHT22;3884;48.616;12.872;2022-12-07T00:01:25;2.90;99.90
7684;DHT22;3884;48.616;12.872;2022-12-07T00:03:54;2.80;99.90
7684;DHT22;3884;48.616;12.872;2022-12-07T00:06:24;2.80;99.90
7684;DHT22;3884;48.616;12.872;2022-12-07T00:08:50;2.80;99.90
7684;DHT22;3884;48.616;12.872;2022-12-07T00:11:22;2.80;99.90
7684;DHT22;3884;48.616;12.872;2022-12-07T00:13:52;2.80;99.90
7684;DHT22;3884;48.616;12.872;2022-12-07T00:16:21;2.80;99.90
7684;DHT22;3884;48.616;12.872;2022-12-07T00:18:48;2.90;99.90
7684;DHT22;3884;48.616;12.872;2022-12-07T00:21:16;2.90;99.90
7684;DHT22;3884;48.616;12.872;2022-12-07T00:23:46;2.80;99.90
7684;DHT22;3884;48.616;12.872;2022-12-07T00:26:15;2.90;99.90
7684;DHT22;3884;48.616;12.872;2022-12-07T00:28:45;2.80;99.90
7684;DHT22;3884;48.616;12.872;2022-12-07T00:31:14;2.90;99.90
7684;DHT22;3884;48.616;12.872;2022-12-07T00:33:41;2.90;99.90
7684;DHT22;3884;48.616;12.872;2022-12-07T00:36:10;2.90;99.90
7684;DHT22;3884;48.616;12.872;2022-12-07T00:38:38;2.90;99.90
7684;DHT22;3884;48.616;12.872;2022-12-07T00:41:10;2.90;99.90
7684;DHT22;3884;48.616;12.872;2022-12-07T00:43:38;2.80;99.90
7684;DHT22;3884;48.616;12.872;2022-12-07T00:46:05;2.80;99.90
7684;DHT22;3884;48.616;12.872;2022-12-07T00:48:32;2.90;99.90
7684;DHT22;3884;48.616;12.872;2022-12-07T00:50:59;2.90;99.90
7684;DHT22;3884;48.616;12.872;2022-12-07T00:53:26;2.90;99.90
7684;DHT22;3884;48.616;12.872;2022-12-07T00:55:53;2.80;99.90
7684;DHT22;3884;48.616;12.872;2022-12-07T00:58:23;2.80;99.90
7684;DHT22;3884;48.616;12.872;2022-12-07T01:00:50;2.80;99.90
7684;DHT22;3884;48.616;12.872;2022-12-07T01:03:17;2.80;99.90
7684;DHT22;3884;48.616;12.872;2022-12-07T01:05:51;2.80;99.90
7684;DHT22;3884;48.616;12.872;2022-12-07T01:08:18;2.80;99.90
7684;DHT22;3884;48.616;12.872;2022-12-07T01:10:46;2.90;99.90
7684;DHT22;3884;48.616;12.872;2022-12-07T01:13:13;2.90;99.90
7684;DHT22;3884;48.616;12.872;2022-12-07T01:15:42;2.80;99.90
7684;DHT22;3884;48.616;12.872;2022-12-07T01:18:09;2.90;99.90
7684;DHT22;3884;48.616;12.872;2022-12-07T01:20:37;2.90;99.90
7684;DHT22;3884;48.616;12.872;2022-12-07T01:23:04;2.90;99.90
7684;DHT22;3884;48.616;12.872;2022-12-07T01:25:31;2.80;99.90
7684;DHT22;3884;48.616;12.872;2022-12-07T01:27:58;2.90;99.90
7684;DHT22;3884;48.616;12.872;2022-12-07T01:30:25;2.80;99.90
7684;DHT22;3884;48.616;12.872;2022-12-07T01:32:54;2.70;99.90
7684;DHT22;3884;48.616;12.872;2022-12-07T01:35:21;2.80;99.90
7684;DHT22;3884;48.616;12.872;2022-12-07T01:37:48;2.80;99.90
7684;DHT22;3884;48.616;12.872;2022-12-07T01:40:15;2.80;99.90
7684;DHT22;3884;48.616;12.872;2022-12-07T01:42:42;2.80;99.90
7684;DHT22;3884;48.616;12.872;2022-12-07T01:45:36;2.90;99.90
7684;DHT22;3884;48.616;12.872;2022-12-07T01:48:05;2.80;99.90
7684;DHT22;3884;48.616;12.872;2022-12-07T01:50:34;2.70;99.90
7684;DHT22;3884;48.616;12.872;2022-12-07T01:53:03;2.80;99.90
7684;DHT22;3884;48.616;12.872;2022-12-07T01:55:31;2.80;99.90
7684;DHT22;3884;48.616;12.872;2022-12-07T01:57:58;2.80;99.90
7684;DHT22;3884;48.616;12.872;2022-12-07T02:00:26;2.80;99.90
7684;DHT22;3884;48.616;12.872;2022-12-07T02:02:55;2.80;99.90
7684;DHT22;3884;48.616;12.872;2022-12-07T02:05:25;2.80;99.90
7684;DHT22;3884;48.616;12.872;2022-12-07T02:07:55;2.80;99.90
7684;DHT22;3884;48.616;12.872;2022-12-07T02:10:24;2.80;99.90
7684;DHT22;3884;48.616;12.872;2022-12-07T02:12:54;2.80;99.90
7684;DHT22;3884;48.616;12.872;2022-12-07T02:15:26;2.80;99.90
7684;DHT22;3884;48.616;12.872;2022-12-07T02:18:01;2.80;99.90
7684;DHT22;3884;48.616;12.872;2022-12-07T02:20:32;2.80;99.90
7684;DHT22;3884;48.616;12.872;2022-12-07T02:23:29;2.70;99.90
7684;DHT22;3884;48.616;12.872;2022-12-07T02:29:20;2.70;99.90
7684;DHT22;3884;48.616;12.872;2022-12-07T02:31:56;2.70;99.90
7684;DHT22;3884;48.616;12.872;2022-12-07T02:34:30;2.70;99.90
7684;DHT22;3884;48.616;12.872;2022-12-07T02:37:01;2.60;99.90
7684;DHT22;3884;48.616;12.872;2022-12-07T02:39:37;2.60;99.90
7684;DHT22;3884;48.616;12.872;2022-12-07T02:42:12;2.60;99.90
7684;DHT22;3884;48.616;12.872;2022-12-07T02:44:42;2.60;99.90
7684;DHT22;3884;48.616;12.872;2022-12-07T02:47:11;2.70;99.90
7684;DHT22;3884;48.616;12.872;2022-12-07T02:49:39;2.70;99.90
7684;DHT22;3884;48.616;12.872;2022-12-07T02:52:06;2.70;99.90
7684;DHT22;3884;48.616;12.872;2022-12-07T02:54:33;2.70;99.90
7684;DHT22;3884;48.616;12.872;2022-12-07T02:57:06;2.60;99.90
7684;DHT22;3884;48.616;12.872;2022-12-07T02:59:45;2.60;99.90
7684;DHT22;3884;48.616;12.872;2022-12-07T03:02:22;2.60;99.90
7684;DHT22;3884;48.616;12.872;2022-12-07T03:05:01;2.60;99.90
7684;DHT22;3884;48.616;12.872;2022-12-07T03:07:36;2.60;99.90
7684;DHT22;3884;48.616;12.872;2022-12-07T03:10:11;2.60;99.90
7684;DHT22;3884;48.616;12.872;2022-12-07T03:12:45;2.60;99.90
7684;DHT22;3884;48.616;12.872;2022-12-07T03:15:20;2.60;99.90
7684;DHT22;3884;48.616;12.872;2022-12-07T03:17:49;2.50;99.90
7684;DHT22;3884;48.616;12.872;2022-12-07T03:20:20;2.60;99.90
7684;DHT22;3884;48.616;12.872;2022-12-07T03:22:49;2.60;99.90
7684;DHT22;3884;48.616;12.872;2022-12-07T03:25:17;2.60;99.90
7684;DHT22;3884;48.616;12.872;2022-12-07T03:27:48;2.60;99.90
7684;DHT22;3884;48.616;12.872;2022-12-07T03:30:20;2.60;99.90
7684;DHT22;3884;48.616;12.872;2022-12-07T03:32:50;2.60;99.90
7684;DHT22;3884;48.616;12.872;2022-12-07T03:35:23;2.60;99.90
7684;DHT22;3884;48.616;12.872;2022-12-07T03:37:55;2.50;99.90
7684;DHT22;3884;48.616;12.872;2022-12-07T03:40:26;2.60;99.90
7684;DHT22;3884;48.616;12.872;2022-12-07T03:42:56;2.50;99.90
7684;DHT22;3884;48.616;12.872;2022-12-07T03:45:32;2.50;99.90
7684;DHT22;3884;48.616;12.872;2022-12-07T03:48:05;2.50;99.90
7684;DHT22;3884;48.616;12.872;2022-12-07T03:50:38;2.50;99.90
7684;DHT22;3884;48.616;12.872;2022-12-07T03:53:11;2.50;99.90
7684;DHT22;3884;48.616;12.872;2022-12-07T03:55:42;2.50;99.90
7684;DHT22;3884;48.616;12.872;2022-12-07T03:58:12;2.50;99.90
7684;DHT22;3884;48.616;12.872;2022-12-07T04:00:43;2.50;99.90
7684;DHT22;3884;48.616;12.872;2022-12-07T04:03:10;2.50;99.90
7684;DHT22;3884;48.616;12.872;2022-12-07T04:05:38;2.50;99.90
7684;DHT22;3884;48.616;12.872;2022-12-07T04:08:05;2.50;99.90
7684;DHT22;3884;48.616;12.872;2022-12-07T04:10:33;2.50;99.90
7684;DHT22;3884;48.616;12.872;2022-12-07T04:13:00;2.50;99.90
7684;DHT22;3884;48.616;12.872;2022-12-07T04:15:27;2.50;99.90
7684;DHT22;3884;48.616;12.872;2022-12-07T04:17:55;2.40;99.90
7684;DHT22;3884;48.616;12.872;2022-12-07T04:20:22;2.50;99.90
7684;DHT22;3884;48.616;12.872;2022-12-07T04:22:49;2.50;99.90
7684;DHT22;3884;48.616;12.872;2022-12-07T04:25:16;2.40;99.90
7684;DHT22;3884;48.616;12.872;2022-12-07T04:27:43;2.50;99.90
7684;DHT22;3884;48.616;12.872;2022-12-07T04:30:10;2.50;99.90
7684;DHT22;3884;48.616;12.872;2022-12-07T04:32:37;2.50;99.90
7684;DHT22;3884;48.616;12.872;2022-12-07T04:35:06;2.50;99.90
7684;DHT22;3884;48.616;12.872;2022-12-07T04:37:33;2.50;99.90
7684;DHT22;3884;48.616;12.872;2022-12-07T04:40:00;2.50;99.90
7684;DHT22;3884;48.616;12.872;2022-12-07T04:42:28;2.40;99.90
7684;DHT22;3884;48.616;12.872;2022-12-07T04:44:54;2.50;99.90
7684;DHT22;3884;48.616;12.872;2022-12-07T04:47:21;2.50;99.90
7684;DHT22;3884;48.616;12.872;2022-12-07T04:49:48;2.50;99.90
7684;DHT22;3884;48.616;12.872;2022-12-07T04:52:17;2.50;99.90
7684;DHT22;3884;48.616;12.872;2022-12-07T04:54:44;2.50;99.90
7684;DHT22;3884;48.616;12.872;2022-12-07T04:57:10;2.40;99.90
7684;DHT22;3884;48.616;12.872;2022-12-07T04:59:37;2.50;99.90
7684;DHT22;3884;48.616;12.872;2022-12-07T05:02:04;2.50;99.90
7684;DHT22;3884;48.616;12.872;2022-12-07T05:04:31;2.50;99.90
7684;DHT22;3884;48.616;12.872;2022-12-07T05:06:58;2.50;99.90
7684;DHT22;3884;48.616;12.872;2022-12-07T05:09:26;2.50;99.90
7684;DHT22;3884;48.616;12.872;2022-12-07T05:11:53;2.40;99.90
7684;DHT22;3884;48.616;12.872;2022-12-07T05:14:21;2.40;99.90
7684;DHT22;3884;48.616;12.872;2022-12-07T05:16:50;2.40;99.90
7684;DHT22;3884;48.616;12.872;2022-12-07T05:19:18;2.50;99.90
7684;DHT22;3884;48.616;12.872;2022-12-07T05:21:45;2.50;99.90
7684;DHT22;3884;48.616;12.872;2022-12-07T05:24:14;2.40;99.90
7684;DHT22;3884;48.616;12.872;2022-12-07T05:26:43;2.40;99.90
7684;DHT22;3884;48.616;12.872;2022-12-07T05:29:11;2.40;99.90
7684;DHT22;3884;48.616;12.872;2022-12-07T05:31:39;2.40;99.90
7684;DHT22;3884;48.616;12.872;2022-12-07T05:34:06;2.40;99.90
7684;DHT22;3884;48.616;12.872;2022-12-07T05:36:33;2.40;99.90
7684;DHT22;3884;48.616;12.872;2022-12-07T05:39:00;2.40;99.90
7684;DHT22;3884;48.616;12.872;2022-12-07T05:41:27;2.40;99.90
7684;DHT22;3884;48.616;12.872;2022-12-07T05:44:13;2.40;99.90
7684;DHT22;3884;48.616;12.872;2022-12-07T05:46:40;2.30;99.90
7684;DHT22;3884;48.616;12.872;2022-12-07T05:49:07;2.30;99.90
7684;DHT22;3884;48.616;12.872;2022-12-07T05:51:34;2.30;99.90
7684;DHT22;3884;48.616;12.872;2022-12-07T05:54:01;2.20;99.90
7684;DHT22;3884;48.616;12.872;2022-12-07T05:56:28;2.30;99.90
7684;DHT22;3884;48.616;12.872;2022-12-07T05:58:55;2.20;99.90
7684;DHT22;3884;48.616;12.872;2022-12-07T06:01:41;2.30;99.90
7684;DHT22;3884;48.616;12.872;2022-12-07T06:04:08;2.20;99.90
7684;DHT22;3884;48.616;12.872;2022-12-07T06:06:35;2.20;99.90
7684;DHT22;3884;48.616;12.872;2022-12-07T06:09:02;2.10;99.90
7684;DHT22;3884;48.616;12.872;2022-12-07T06:11:29;2.10;99.90
7684;DHT22;3884;48.616;12.872;2022-12-07T06:14:13;2.10;99.90
7684;DHT22;3884;48.616;12.872;2022-12-07T06:16:42;2.10;99.90
7684;DHT22;3884;48.616;12.872;2022-12-07T06:19:09;2.00;99.90
7684;DHT22;3884;48.616;12.872;2022-12-07T06:21:35;2.00;99.90
7684;DHT22;3884;48.616;12.872;2022-12-07T06:24:03;2.00;99.90
7684;DHT22;3884;48.616;12.872;2022-12-07T06:26:30;2.00;99.90
7684;DHT22;3884;48.616;12.872;2022-12-07T06:28:57;2.00;99.90
7684;DHT22;3884;48.616;12.872;2022-12-07T06:31:24;2.00;99.90
7684;DHT22;3884;48.616;12.872;2022-12-07T06:33:57;1.90;99.90
7684;DHT22;3884;48.616;12.872;2022-12-07T06:36:24;1.90;99.90
7684;DHT22;3884;48.616;12.872;2022-12-07T06:38:51;1.90;99.90
7684;DHT22;3884;48.616;12.872;2022-12-07T06:41:18;1.80;99.90
7684;DHT22;3884;48.616;12.872;2022-12-07T06:43:45;1.80;99.90
7684;DHT22;3884;48.616;12.872;2022-12-07T06:46:13;1.70;99.90
7684;DHT22;3884;48.616;12.872;2022-12-07T06:48:40;1.70;99.90
7684;DHT22;3884;48.616;12.872;2022-12-07T06:51:08;1.70;99.90
7684;DHT22;3884;48.616;12.872;2022-12-07T06:53:36;1.70;99.90
7684;DHT22;3884;48.616;12.872;2022-12-07T06:56:03;1.60;99.90
7684;DHT22;3884;48.616;12.872;2022-12-07T06:58:31;1.60;99.90
7684;DHT22;3884;48.616;12.872;2022-12-07T07:00:57;1.60;99.90
7684;DHT22;3884;48.616;12.872;2022-12-07T07:03:25;1.60;99.90
7684;DHT22;3884;48.616;12.872;2022-12-07T07:05:51;1.60;99.90
7684;DHT22;3884;48.616;12.872;2022-12-07T07:08:20;1.60;99.90
7684;DHT22;3884;48.616;12.872;2022-12-07T07:10:47;1.50;99.90
7684;DHT22;3884;48.616;12.872;2022-12-07T07:13:14;1.50;99.90
7684;DHT22;3884;48.616;12.872;2022-12-07T07:15:40;1.70;99.90
7684;DHT22;3884;48.616;12.872;2022-12-07T07:18:08;1.50;99.90
7684;DHT22;3884;48.616;12.872;2022-12-07T07:20:35;1.50;99.90
7684;DHT22;3884;48.616;12.872;2022-12-07T07:23:01;1.60;99.90
7684;DHT22;3884;48.616;12.872;2022-12-07T07:25:30;1.60;99.90
7684;DHT22;3884;48.616;12.872;2022-12-07T07:27:58;1.60;99.90
7684;DHT22;3884;48.616;12.872;2022-12-07T07:30:25;1.50;99.90
7684;DHT22;3884;48.616;12.872;2022-12-07T07:32:56;1.50;99.90
7684;DHT22;3884;48.616;12.872;2022-12-07T07:35:23;1.40;99.90
7684;DHT22;3884;48.616;12.872;2022-12-07T07:37:50;1.40;99.90
7684;DHT22;3884;48.616;12.872;2022-12-07T07:40:17;1.40;99.90
7684;DHT22;3884;48.616;12.872;2022-12-07T07:42:47;1.40;99.90
7684;DHT22;3884;48.616;12.872;2022-12-07T07:45:14;1.50;99.90
7684;DHT22;3884;48.616;12.872;2022-12-07T07:47:41;1.50;99.90
7684;DHT22;3884;48.616;12.872;2022-12-07T07:50:08;1.50;99.90
7684;DHT22;3884;48.616;12.872;2022-12-07T07:52:36;1.50;99.90
7684;DHT22;3884;48.616;12.872;2022-12-07T07:55:03;1.50;99.90
7684;DHT22;3884;48.616;12.872;2022-12-07T07:57:30;1.50;99.90
7684;DHT22;3884;48.616;12.872;2022-12-07T07:59:59;1.60;99.90
7684;DHT22;3884;48.616;12.872;2022-12-07T08:02:26;1.60;99.90
7684;DHT22;3884;48.616;12.872;2022-12-07T08:04:55;1.60;99.90
7684;DHT22;3884;48.616;12.872;2022-12-07T08:07:22;1.60;99.90
7684;DHT22;3884;48.616;12.872;2022-12-07T08:09:48;1.60;99.90
7684;DHT22;3884;48.616;12.872;2022-12-07T08:12:15;1.70;99.90
7684;DHT22;3884;48.616;12.872;2022-12-07T08:14:42;1.80;99.90
7684;DHT22;3884;48.616;12.872;2022-12-07T08:17:11;1.70;99.90
7684;DHT22;3884;48.616;12.872;2022-12-07T08:19:38;1.80;99.90
7684;DHT22;3884;48.616;12.872;2022-12-07T08:22:05;1.90;99.90
7684;DHT22;3884;48.616;12.872;2022-12-07T08:24:33;2.00;99.90
7684;DHT22;3884;48.616;12.872;2022-12-07T08:27:00;2.60;99.90
7684;DHT22;3884;48.616;12.872;2022-12-07T08:29:27;2.30;99.90
7684;DHT22;3884;48.616;12.872;2022-12-07T08:31:54;2.30;99.90
7684;DHT22;3884;48.616;12.872;2022-12-07T08:34:23;2.40;99.90
7684;DHT22;3884;48.616;12.872;2022-12-07T08:36:50;2.50;99.90
7684;DHT22;3884;48.616;12.872;2022-12-07T08:39:16;2.50;99.90
7684;DHT22;3884;48.616;12.872;2022-12-07T08:41:43;2.50;99.90
7684;DHT22;3884;48.616;12.872;2022-12-07T08:44:10;2.60;99.90
7684;DHT22;3884;48.616;12.872;2022-12-07T08:46:39;2.60;99.90
7684;DHT22;3884;48.616;12.872;2022-12-07T08:49:10;2.60;99.90
7684;DHT22;3884;48.616;12.872;2022-12-07T08:51:40;2.60;99.90
7684;DHT22;3884;48.616;12.872;2022-12-07T08:54:10;2.60;99.90
7684;DHT22;3884;48.616;12.872;2022-12-07T08:56:37;2.70;99.90
7684;DHT22;3884;48.616;12.872;2022-12-07T08:59:06;2.60;99.90
7684;DHT22;3884;48.616;12.872;2022-12-07T09:01:33;2.60;99.90
7684;DHT22;3884;48.616;12.872;2022-12-07T09:04:00;2.60;99.90
7684;DHT22;3884;48.616;12.872;2022-12-07T09:06:27;2.70;99.90
7684;DHT22;3884;48.616;12.872;2022-12-07T09:08:58;2.70;99.90
7684;DHT22;3884;48.616;12.872;2022-12-07T09:11:26;2.80;99.90
7684;DHT22;3884;48.616;12.872;2022-12-07T09:13:52;2.80;99.90
7684;DHT22;3884;48.616;12.872;2022-12-07T09:16:19;2.90;99.90
7684;DHT22;3884;48.616;12.872;2022-12-07T09:18:46;3.00;99.90
7684;DHT22;3884;48.616;12.872;2022-12-07T09:21:13;2.90;99.90
7684;DHT22;3884;48.616;12.872;2022-12-07T09:23:41;3.00;99.90
7684;DHT22;3884;48.616;12.872;2022-12-07T09:26:10;3.00;99.90
7684;DHT22;3884;48.616;12.872;2022-12-07T09:28:37;3.10;99.90
7684;DHT22;3884;48.616;12.872;2022-12-07T09:31:05;3.00;99.90
7684;DHT22;3884;48.616;12.872;2022-12-07T09:33:31;3.00;99.90
7684;DHT22;3884;48.616;12.872;2022-12-07T09:35:59;3.10;99.90
7684;DHT22;3884;48.616;12.872;2022-12-07T09:38:26;3.10;99.90
7684;DHT22;3884;48.616;12.872;2022-12-07T09:40:55;3.10;99.90
7684;DHT22;3884;48.616;12.872;2022-12-07T09:43:25;3.20;99.90
7684;DHT22;3884;48.616;12.872;2022-12-07T09:45:54;3.20;99.90
7684;DHT22;3884;48.616;12.872;2022-12-07T09:48:25;3.20;99.90
7684;DHT22;3884;48.616;12.872;2022-12-07T09:50:57;3.30;99.90
7684;DHT22;3884;48.616;12.872;2022-12-07T09:53:30;3.30;99.90
7684;DHT22;3884;48.616;12.872;2022-12-07T09:56:00;3.20;99.90
7684;DHT22;3884;48.616;12.872;2022-12-07T09:58:30;3.30;99.90
7684;DHT22;3884;48.616;12.872;2022-12-07T10:01:00;3.30;99.90
7684;DHT22;3884;48.616;12.872;2022-12-07T10:03:28;3.40;99.90
7684;DHT22;3884;48.616;12.872;2022-12-07T10:05:55;3.40;99.90
7684;DHT22;3884;48.616;12.872;2022-12-07T10:08:24;3.40;99.90
7684;DHT22;3884;48.616;12.872;2022-12-07T10:10:53;3.40;99.90
7684;DHT22;3884;48.616;12.872;2022-12-07T10:13:22;3.50;99.90
7684;DHT22;3884;48.616;12.872;2022-12-07T10:15:53;3.60;99.90
7684;DHT22;3884;48.616;12.872;2022-12-07T10:18:26;3.60;99.90
7684;DHT22;3884;48.616;12.872;2022-12-07T10:21:11;3.60;99.90
7684;DHT22;3884;48.616;12.872;2022-12-07T10:23:40;3.70;99.90
7684;DHT22;3884;48.616;12.872;2022-12-07T10:26:20;3.60;99.90
7684;DHT22;3884;48.616;12.872;2022-12-07T10:28:48;3.50;99.90
7684;DHT22;3884;48.616;12.872;2022-12-07T10:31:19;3.50;99.90
7684;DHT22;3884;48.616;12.872;2022-12-07T10:33:51;3.50;99.90
7684;DHT22;3884;48.616;12.872;2022-12-07T10:36:24;3.50;99.90
7684;DHT22;3884;48.616;12.872;2022-12-07T10:38:53;3.60;99.90
7684;DHT22;3884;48.616;12.872;2022-12-07T10:41:25;3.50;90.20
7684;DHT22;3884;48.616;12.872;2022-12-07T10:43:54;3.50;93.00
7684;DHT22;3884;48.616;12.872;2022-12-07T10:46:55;3.50;94.60
7684;DHT22;3884;48.616;12.872;2022-12-07T10:52:45;3.50;99.90
7684;DHT22;3884;48.616;12.872;2022-12-07T10:55:21;3.50;99.90
7684;DHT22;3884;48.616;12.872;2022-12-07T10:58:04;3.60;99.90
7684;DHT22;3884;48.616;12.872;2022-12-07T11:00:39;3.60;91.30
7684;DHT22;3884;48.616;12.872;2022-12-07T11:03:26;3.50;90.40
7684;DHT22;3884;48.616;12.872;2022-12-07T11:06:04;3.60;90.10
7684;DHT22;3884;48.616;12.872;2022-12-07T11:11:33;3.60;78.20
7684;DHT22;3884;48.616;12.872;2022-12-07T11:14:05;3.50;56.00
7684;DHT22;3884;48.616;12.872;2022-12-07T11:16:55;3.50;99.90
7684;DHT22;3884;48.616;12.872;2022-12-07T11:19:49;3.60;99.90
7684;DHT22;3884;48.616;12.872;2022-12-07T11:22:29;3.70;99.90
7684;DHT22;3884;48.616;12.872;2022-12-07T11:25:15;3.80;99.90
7684;DHT22;3884;48.616;12.872;2022-12-07T11:27:48;3.80;99.90
7684;DHT22;3884;48.616;12.872;2022-12-07T11:30:19;4.00;99.90
7684;DHT22;3884;48.616;12.872;2022-12-07T11:33:10;4.00;93.20
7684;DHT22;3884;48.616;12.872;2022-12-07T11:35:55;3.80;95.30
7684;DHT22;3884;48.616;12.872;2022-12-07T11:38:30;3.80;82.90
7684;DHT22;3884;48.616;12.872;2022-12-07T11:41:02;3.90;92.80
7684;DHT22;3884;48.616;12.872;2022-12-07T11:43:50;3.90;99.90
7684;DHT22;3884;48.616;12.872;2022-12-07T11:46:18;3.90;94.20
7684;DHT22;3884;48.616;12.872;2022-12-07T11:48:52;3.90;80.50
7684;DHT22;3884;48.616;12.872;2022-12-07T11:51:23;3.90;93.40
7684;DHT22;3884;48.616;12.872;2022-12-07T11:53:54;4.00;99.90
7684;DHT22;3884;48.616;12.872;2022-12-07T11:56:24;4.00;99.90
7684;DHT22;3884;48.616;12.872;2022-12-07T11:58:57;4.00;99.90
7684;DHT22;3884;48.616;12.872;2022-12-07T12:01:31;4.00;99.90
7684;DHT22;3884;48.616;12.872;2022-12-07T12:04:12;4.00;99.90
7684;DHT22;3884;48.616;12.872;2022-12-07T12:06:44;4.00;99.90
7684;DHT22;3884;48.616;12.872;2022-12-07T12:09:13;4.00;99.90
7684;DHT22;3884;48.616;12.872;2022-12-07T12:11:56;4.00;99.90
7684;DHT22;3884;48.616;12.872;2022-12-07T12:14:41;4.00;99.90
7684;DHT22;3884;48.616;12.872;2022-12-07T12:20:22;4.00;99.90
7684;DHT22;3884;48.616;12.872;2022-12-07T12:22:54;3.90;99.90
7684;DHT22;3884;48.616;12.872;2022-12-07T12:25:26;3.80;99.90
7684;DHT22;3884;48.616;12.872;2022-12-07T12:27:56;3.90;99.90
7684;DHT22;3884;48.616;12.872;2022-12-07T12:30:30;3.90;99.90
7684;DHT22;3884;48.616;12.872;2022-12-07T12:33:03;3.90;99.90
7684;DHT22;3884;48.616;12.872;2022-12-07T12:35:33;3.90;99.90
7684;DHT22;3884;48.616;12.872;2022-12-07T12:38:29;3.90;99.90
7684;DHT22;3884;48.616;12.872;2022-12-07T12:40:57;4.00;99.90
7684;DHT22;3884;48.616;12.872;2022-12-07T12:43:57;4.00;99.90
7684;DHT22;3884;48.616;12.872;2022-12-07T12:46:48;4.00;99.90
7684;DHT22;3884;48.616;12.872;2022-12-07T12:49:43;4.10;99.90
7684;DHT22;3884;48.616;12.872;2022-12-07T12:55:21;4.10;99.90
7684;DHT22;3884;48.616;12.872;2022-12-07T12:58:27;4.10;99.90
7684;DHT22;3884;48.616;12.872;2022-12-07T13:04:34;4.10;99.90
7684;DHT22;3884;48.616;12.872;2022-12-07T13:07:03;4.10;99.90
7684;DHT22;3884;48.616;12.872;2022-12-07T13:09:33;4.10;99.90
7684;DHT22;3884;48.616;12.872;2022-12-07T13:12:05;4.00;99.90
7684;DHT22;3884;48.616;12.872;2022-12-07T13:15:19;4.00;99.90
7684;DHT22;3884;48.616;12.872;2022-12-07T13:17:59;4.10;99.90
7684;DHT22;3884;48.616;12.872;2022-12-07T13:20:45;4.10;99.90
7684;DHT22;3884;48.616;12.872;2022-12-07T13:23:14;4.10;99.90
7684;DHT22;3884;48.616;12.872;2022-12-07T13:25:53;4.10;99.90
7684;DHT22;3884;48.616;12.872;2022-12-07T13:28:23;4.10;99.90
7684;DHT22;3884;48.616;12.872;2022-12-07T13:31:13;4.20;99.90
7684;DHT22;3884;48.616;12.872;2022-12-07T13:33:43;4.20;96.50
7684;DHT22;3884;48.616;12.872;2022-12-07T13:36:20;4.10;99.90
7684;DHT22;3884;48.616;12.872;2022-12-07T13:38:50;4.10;97.50
7684;DHT22;3884;48.616;12.872;2022-12-07T13:41:19;4.10;99.90
7684;DHT22;3884;48.616;12.872;2022-12-07T13:43:52;4.10;99.90
7684;DHT22;3884;48.616;12.872;2022-12-07T13:46:25;4.10;96.40
7684;DHT22;3884;48.616;12.872;2022-12-07T13:48:53;4.10;91.50
7684;DHT22;3884;48.616;12.872;2022-12-07T13:51:24;4.10;99.90
7684;DHT22;3884;48.616;12.872;2022-12-07T13:53:53;4.10;99.90
7684;DHT22;3884;48.616;12.872;2022-12-07T13:56:22;4.00;99.90
7684;DHT22;3884;48.616;12.872;2022-12-07T13:58:54;4.10;99.90
7684;DHT22;3884;48.616;12.872;2022-12-07T14:01:21;4.10;99.90
7684;DHT22;3884;48.616;12.872;2022-12-07T14:03:49;4.10;99.90
7684;DHT22;3884;48.616;12.872;2022-12-07T14:06:24;4.10;99.90
7684;DHT22;3884;48.616;12.872;2022-12-07T14:09:18;4.10;99.90
7684;DHT22;3884;48.616;12.872;2022-12-07T14:11:45;4.10;99.90
7684;DHT22;3884;48.616;12.872;2022-12-07T14:14:18;4.10;99.90
7684;DHT22;3884;48.616;12.872;2022-12-07T14:16:59;4.00;99.90
7684;DHT22;3884;48.616;12.872;2022-12-07T14:19:45;4.10;99.90
7684;DHT22;3884;48.616;12.872;2022-12-07T14:22:27;4.00;99.90
7684;DHT22;3884;48.616;12.872;2022-12-07T14:25:18;4.00;99.90
7684;DHT22;3884;48.616;12.872;2022-12-07T14:27:54;3.90;99.90
7684;DHT22;3884;48.616;12.872;2022-12-07T14:30:26;3.90;99.90
7684;DHT22;3884;48.616;12.872;2022-12-07T14:32:57;4.00;99.90
7684;DHT22;3884;48.616;12.872;2022-12-07T14:35:24;3.90;99.90
7684;DHT22;3884;48.616;12.872;2022-12-07T14:37:51;3.90;99.90
7684;DHT22;3884;48.616;12.872;2022-12-07T14:40:20;3.90;99.90
7684;DHT22;3884;48.616;12.872;2022-12-07T14:42:50;3.90;99.90
7684;DHT22;3884;48.616;12.872;2022-12-07T14:45:19;3.80;99.90
7684;DHT22;3884;48.616;12.872;2022-12-07T14:47:47;3.80;99.90
7684;DHT22;3884;48.616;12.872;2022-12-07T14:50:16;3.80;99.90
7684;DHT22;3884;48.616;12.872;2022-12-07T14:52:46;3.80;99.90
7684;DHT22;3884;48.616;12.872;2022-12-07T14:55:23;3.70;99.90
7684;DHT22;3884;48.616;12.872;2022-12-07T14:57:50;3.80;82.60
7684;DHT22;3884;48.616;12.872;2022-12-07T15:00:18;3.70;90.10
7684;DHT22;3884;48.616;12.872;2022-12-07T15:02:48;3.70;99.90
7684;DHT22;3884;48.616;12.872;2022-12-07T15:05:15;3.70;93.40
7684;DHT22;3884;48.616;12.872;2022-12-07T15:07:43;3.70;82.90
7684;DHT22;3884;48.616;12.872;2022-12-07T15:10:16;3.70;96.20
7684;DHT22;3884;48.616;12.872;2022-12-07T15:12:44;3.70;91.80
7684;DHT22;3884;48.616;12.872;2022-12-07T15:15:12;3.60;99.90
7684;DHT22;3884;48.616;12.872;2022-12-07T15:17:39;3.70;99.90
7684;DHT22;3884;48.616;12.872;2022-12-07T15:20:09;3.60;99.90
7684;DHT22;3884;48.616;12.872;2022-12-07T15:22:37;3.50;99.90
7684;DHT22;3884;48.616;12.872;2022-12-07T15:25:05;3.50;99.90
7684;DHT22;3884;48.616;12.872;2022-12-07T15:27:32;3.50;87.30
7684;DHT22;3884;48.616;12.872;2022-12-07T15:29:59;3.50;99.90
7684;DHT22;3884;48.616;12.872;2022-12-07T15:32:26;3.50;99.70
7684;DHT22;3884;48.616;12.872;2022-12-07T15:34:53;3.50;99.90
7684;DHT22;3884;48.616;12.872;2022-12-07T15:37:22;3.40;99.90
7684;DHT22;3884;48.616;12.872;2022-12-07T15:39:48;3.40;99.90
7684;DHT22;3884;48.616;12.872;2022-12-07T15:42:15;3.40;99.90
7684;DHT22;3884;48.616;12.872;2022-12-07T15:44:42;3.40;99.90
7684;DHT22;3884;48.616;12.872;2022-12-07T15:47:27;3.30;99.90
7684;DHT22;3884;48.616;12.872;2022-12-07T15:49:53;3.30;99.90
7684;DHT22;3884;48.616;12.872;2022-12-07T15:52:22;3.30;99.90
7684;DHT22;3884;48.616;12.872;2022-12-07T15:54:49;3.30;99.90
7684;DHT22;3884;48.616;12.872;2022-12-07T15:57:16;3.20;99.90
7684;DHT22;3884;48.616;12.872;2022-12-07T15:59:43;3.30;99.90
7684;DHT22;3884;48.616;12.872;2022-12-07T16:02:10;3.20;99.90
7684;DHT22;3884;48.616;12.872;2022-12-07T16:04:37;3.30;99.90
7684;DHT22;3884;48.616;12.872;2022-12-07T16:07:04;3.30;99.90
7684;DHT22;3884;48.616;12.872;2022-12-07T16:09:32;3.30;99.90
7684;DHT22;3884;48.616;12.872;2022-12-07T16:11:59;3.40;99.90
7684;DHT22;3884;48.616;12.872;2022-12-07T16:14:26;3.30;99.90
7684;DHT22;3884;48.616;12.872;2022-12-07T16:16:53;3.30;99.90
7684;DHT22;3884;48.616;12.872;2022-12-07T16:19:20;3.30;99.90
7684;DHT22;3884;48.616;12.872;2022-12-07T16:21:47;3.30;99.90
7684;DHT22;3884;48.616;12.872;2022-12-07T16:24:14;3.30;99.90
7684;DHT22;3884;48.616;12.872;2022-12-07T16:26:43;3.20;99.90
7684;DHT22;3884;48.616;12.872;2022-12-07T16:29:11;3.30;99.90
7684;DHT22;3884;48.616;12.872;2022-12-07T16:31:39;3.20;99.90
7684;DHT22;3884;48.616;12.872;2022-12-07T16:34:06;3.30;99.90
7684;DHT22;3884;48.616;12.872;2022-12-07T16:36:33;3.30;99.90
7684;DHT22;3884;48.616;12.872;2022-12-07T16:39:01;3.30;99.90
7684;DHT22;3884;48.616;12.872;2022-12-07T16:41:28;3.30;99.90
7684;DHT22;3884;48.616;12.872;2022-12-07T16:43:56;3.30;99.90